Time;durP1;ratioP1;P1;durP2;ratioP2;P2;SDS_P1;SDS_P2;PMS_P1;PMS_P2;Temp;Humidity;BMP_temperature;BMP_pressure;BME280_temperature;BME280_humidity;BME280_pressure;Samples;Min_cycle;Max_cycle;Signal;HPM_P1;HPM_P2
2023/03/16 00:02:10;;;;;;;7.80;4.80;;;4.20;99.90;;;;;;4979789;28;20243;-90
2023/03/16 00:04:38;;;;;;;6.07;4.40;;;4.20;99.90;;;;;;4979664;28;20216;-89
2023/03/16 00:07:07;;;;;;;6.60;4.90;;;4.20;99.90;;;;;;4979044;28;20208;-90
2023/03/16 00:09:39;;;;;;;9.77;5.43;;;4.20;99.90;;;;;;4983467;28;20223;-87
2023/03/16 00:12:16;;;;;;;9.07;5.40;;;4.20;99.90;;;;;;4991047;28;20688;-88
2023/03/16 00:14:45;;;;;;;8.67;5.10;;;4.20;99.90;;;;;;4979248;28;20211;-88
2023/03/16 00:17:18;;;;;;;9.13;4.87;;;4.20;99.90;;;;;;4986930;28;20204;-90
2023/03/16 00:19:46;;;;;;;11.37;5.83;;;4.20;99.90;;;;;;4975733;28;20306;-88
2023/03/16 00:22:15;;;;;;;7.83;5.10;;;4.20;99.90;;;;;;4985805;28;20213;-88
2023/03/16 00:24:43;;;;;;;8.47;5.20;;;4.20;99.90;;;;;;4980033;28;20227;-87
2023/03/16 00:27:13;;;;;;;9.00;4.77;;;4.30;99.90;;;;;;4981070;28;20650;-88
2023/03/16 00:29:54;;;;;;;7.10;5.20;;;4.30;99.90;;;;;;4974350;28;20216;-88
2023/03/16 00:32:32;;;;;;;7.73;5.00;;;4.30;99.90;;;;;;4997725;28;20216;-87
2023/03/16 00:35:02;;;;;;;10.07;5.27;;;4.30;99.90;;;;;;4980390;28;20214;-89
2023/03/16 00:37:31;;;;;;;8.23;5.33;;;4.30;99.90;;;;;;4986965;28;20235;-89
2023/03/16 00:39:59;;;;;;;7.43;5.00;;;4.40;99.90;;;;;;4980864;28;20635;-90
2023/03/16 00:42:28;;;;;;;6.70;4.80;;;4.40;99.90;;;;;;4991156;28;20226;-89
2023/03/16 00:44:57;;;;;;;7.37;4.70;;;4.40;99.90;;;;;;4980112;28;20285;-88
2023/03/16 00:47:27;;;;;;;7.67;5.30;;;4.40;99.90;;;;;;4978342;28;20628;-89
2023/03/16 00:49:56;;;;;;;11.47;5.60;;;4.50;99.90;;;;;;4988952;28;20271;-88
2023/03/16 00:52:29;;;;;;;7.50;5.30;;;4.50;99.90;;;;;;4973442;28;20618;-89
2023/03/16 00:54:56;;;;;;;8.30;5.40;;;4.50;99.90;;;;;;4986297;28;20203;-89
2023/03/16 00:57:24;;;;;;;8.87;5.63;;;4.50;99.90;;;;;;4977554;28;20716;-90
2023/03/16 00:59:52;;;;;;;8.50;5.27;;;4.50;99.90;;;;;;4996625;28;20259;-88
2023/03/16 01:02:23;;;;;;;6.70;5.20;;;4.50;99.90;;;;;;4979422;28;20740;-89
2023/03/16 01:04:54;;;;;;;5.97;5.13;;;4.50;99.90;;;;;;4972384;28;20848;-89
2023/03/16 01:07:22;;;;;;;8.67;5.37;;;4.50;99.90;;;;;;4988335;28;20212;-89
2023/03/16 01:09:50;;;;;;;8.33;5.43;;;4.50;99.90;;;;;;4979562;28;20255;-89
2023/03/16 01:12:18;;;;;;;8.80;5.67;;;4.50;99.90;;;;;;4977981;28;20242;-90
2023/03/16 01:14:48;;;;;;;7.83;5.17;;;4.50;99.90;;;;;;4975549;28;20212;-88
2023/03/16 01:17:16;;;;;;;6.93;5.47;;;4.60;99.90;;;;;;4977623;28;20300;-89
2023/03/16 01:19:44;;;;;;;8.33;5.40;;;4.50;99.90;;;;;;4989942;28;20212;-89
2023/03/16 01:22:11;;;;;;;6.57;5.33;;;4.50;99.90;;;;;;4977591;28;20660;-89
2023/03/16 01:24:44;;;;;;;8.37;5.10;;;4.50;99.90;;;;;;4979897;28;20212;-91
2023/03/16 01:27:11;;;;;;;7.03;5.00;;;4.50;99.90;;;;;;4978491;28;20259;-88
2023/03/16 01:29:42;;;;;;;7.23;5.20;;;4.50;99.90;;;;;;4979804;28;20239;-89
2023/03/16 01:32:10;;;;;;;6.33;5.13;;;4.50;99.90;;;;;;4978808;28;20298;-90
2023/03/16 01:34:40;;;;;;;6.93;5.00;;;4.50;99.90;;;;;;4980248;28;20665;-89
2023/03/16 01:37:08;;;;;;;9.47;5.80;;;4.50;99.90;;;;;;4997771;28;20720;-90
2023/03/16 01:39:35;;;;;;;9.60;5.53;;;4.60;99.90;;;;;;4988571;28;20219;-90
2023/03/16 01:42:02;;;;;;;9.33;6.10;;;4.60;99.90;;;;;;4982589;28;20185;-89
2023/03/16 01:45:04;;;;;;;7.47;5.83;;;4.60;99.90;;;;;;4981943;28;20266;-90
2023/03/16 01:47:37;;;;;;;10.60;5.80;;;4.60;99.90;;;;;;4975534;28;20323;-89
2023/03/16 01:50:06;;;;;;;10.70;5.30;;;4.60;99.90;;;;;;4986942;28;20239;-89
2023/03/16 01:52:36;;;;;;;9.07;5.97;;;4.50;99.90;;;;;;4983859;28;20227;-87
2023/03/16 01:55:07;;;;;;;10.57;6.23;;;4.50;99.90;;;;;;4981860;28;20236;-89
2023/03/16 01:57:45;;;;;;;10.47;5.70;;;4.50;99.90;;;;;;4981738;28;20786;-90
2023/03/16 02:00:19;;;;;;;7.07;5.03;;;4.50;99.90;;;;;;4981777;28;20693;-89
2023/03/16 02:02:52;;;;;;;8.07;5.30;;;4.50;99.90;;;;;;4980423;28;20239;-89
2023/03/16 02:05:29;;;;;;;7.97;5.43;;;4.50;99.90;;;;;;4978882;28;20200;-88
2023/03/16 02:08:02;;;;;;;8.60;5.57;;;4.50;99.90;;;;;;4992737;28;20204;-89
2023/03/16 02:10:33;;;;;;;8.00;5.63;;;4.50;99.90;;;;;;4978291;28;20673;-89
2023/03/16 02:13:05;;;;;;;8.03;5.67;;;4.40;99.90;;;;;;4976153;28;20270;-88
2023/03/16 02:15:38;;;;;;;7.53;5.33;;;4.50;99.90;;;;;;4975242;28;20250;-87
2023/03/16 02:18:08;;;;;;;7.83;5.17;;;4.50;99.90;;;;;;4973437;28;20229;-89
2023/03/16 02:21:05;;;;;;;9.37;5.57;;;4.40;99.90;;;;;;4974955;28;20637;-87
2023/03/16 02:23:43;;;;;;;9.37;5.27;;;4.40;99.90;;;;;;4975253;28;20200;-89
2023/03/16 02:26:38;;;;;;;8.37;5.60;;;4.50;99.90;;;;;;4975587;28;20256;-89
2023/03/16 02:29:44;;;;;;;7.57;5.47;;;4.50;99.90;;;;;;4975701;28;20222;-89
2023/03/16 02:32:13;;;;;;;7.87;5.67;;;4.50;99.90;;;;;;4978450;28;20297;-90
2023/03/16 02:34:41;;;;;;;8.83;5.77;;;4.40;99.90;;;;;;4980007;28;20192;-89
2023/03/16 02:37:10;;;;;;;8.03;5.53;;;4.50;99.90;;;;;;4977242;28;20212;-89
2023/03/16 02:39:37;;;;;;;9.93;5.80;;;4.60;99.90;;;;;;4977084;28;20204;-89
2023/03/16 02:42:05;;;;;;;10.30;5.10;;;4.60;99.90;;;;;;4977311;28;20591;-88
2023/03/16 02:44:39;;;;;;;8.03;5.20;;;4.60;99.90;;;;;;4980900;28;20542;-88
2023/03/16 02:47:15;;;;;;;7.83;5.27;;;4.60;99.90;;;;;;4980543;28;20216;-89
2023/03/16 02:49:44;;;;;;;6.40;5.30;;;4.70;99.90;;;;;;4977472;28;20227;-90
2023/03/16 02:52:11;;;;;;;10.40;5.50;;;4.70;99.90;;;;;;4977691;28;20236;-87
2023/03/16 02:54:38;;;;;;;9.30;5.70;;;4.70;99.90;;;;;;4979807;28;20196;-90
2023/03/16 02:57:13;;;;;;;7.90;5.67;;;4.70;99.90;;;;;;4979936;28;20654;-89
2023/03/16 02:59:40;;;;;;;10.03;5.67;;;4.70;99.90;;;;;;4979922;28;20216;-89
2023/03/16 03:02:07;;;;;;;7.70;5.43;;;4.70;99.90;;;;;;4977066;28;20233;-89
2023/03/16 03:04:39;;;;;;;7.97;4.90;;;4.70;99.90;;;;;;4961481;29;20212;-89
2023/03/16 03:07:06;;;;;;;6.23;5.13;;;4.80;99.90;;;;;;4967075;28;20196;-89
2023/03/16 03:09:34;;;;;;;8.73;5.23;;;4.80;99.90;;;;;;4980466;28;20683;-89
2023/03/16 03:12:01;;;;;;;11.37;6.30;;;4.80;99.90;;;;;;4980512;28;20232;-89
2023/03/16 03:14:28;;;;;;;6.73;5.60;;;4.80;99.90;;;;;;4978847;28;20646;-90
2023/03/16 03:16:55;;;;;;;8.90;5.87;;;4.80;99.90;;;;;;4979313;28;20210;-89
2023/03/16 03:19:29;;;;;;;8.23;5.67;;;4.80;99.90;;;;;;4984398;28;20212;-90
2023/03/16 03:21:56;;;;;;;9.77;5.33;;;4.80;99.90;;;;;;4995936;28;20219;-89
2023/03/16 03:24:26;;;;;;;6.80;5.03;;;4.80;99.90;;;;;;4981277;28;20257;-89
2023/03/16 03:26:56;;;;;;;7.27;5.37;;;4.80;99.90;;;;;;4988125;28;20217;-88
2023/03/16 03:29:23;;;;;;;8.70;5.10;;;4.80;99.90;;;;;;4979286;28;20713;-89
2023/03/16 03:31:50;;;;;;;9.67;5.60;;;4.80;99.90;;;;;;4991116;28;20210;-89
2023/03/16 03:34:18;;;;;;;9.23;5.67;;;4.80;99.90;;;;;;4992642;28;20688;-88
2023/03/16 03:36:48;;;;;;;10.57;5.87;;;4.80;99.90;;;;;;4968885;28;20214;-89
2023/03/16 03:39:18;;;;;;;7.37;5.37;;;4.90;99.90;;;;;;4975547;28;20214;-90
2023/03/16 03:41:45;;;;;;;8.03;5.77;;;4.80;99.90;;;;;;4974909;28;20219;-90
2023/03/16 03:44:12;;;;;;;12.27;5.47;;;4.90;99.90;;;;;;4980701;28;20223;-88
2023/03/16 03:46:42;;;;;;;7.83;5.73;;;4.90;99.90;;;;;;4970635;28;20196;-89
2023/03/16 03:49:11;;;;;;;7.20;5.30;;;4.90;99.90;;;;;;4960435;28;20283;-90
2023/03/16 03:51:40;;;;;;;7.43;5.63;;;4.90;99.90;;;;;;4956871;29;20278;-89
2023/03/16 03:54:08;;;;;;;7.47;5.70;;;4.90;99.90;;;;;;4966392;28;20228;-91
2023/03/16 03:56:39;;;;;;;8.13;5.50;;;4.90;99.90;;;;;;4985835;28;20692;-88
2023/03/16 03:59:07;;;;;;;7.90;5.43;;;4.80;99.90;;;;;;4976063;28;20208;-90
2023/03/16 04:01:34;;;;;;;7.07;5.27;;;4.90;99.90;;;;;;4976525;28;20234;-89
2023/03/16 04:04:02;;;;;;;7.67;5.73;;;4.90;99.90;;;;;;4977859;28;20227;-89
2023/03/16 04:06:30;;;;;;;11.73;5.40;;;4.90;99.90;;;;;;4983028;28;20279;-89
2023/03/16 04:08:58;;;;;;;7.70;5.57;;;5.10;99.90;;;;;;4976339;28;20262;-89
2023/03/16 04:11:25;;;;;;;6.87;5.80;;;4.90;99.90;;;;;;4972148;28;20230;-90
2023/03/16 04:13:56;;;;;;;8.87;5.67;;;4.90;99.90;;;;;;4970341;28;20574;-90
2023/03/16 04:16:25;;;;;;;6.83;5.40;;;4.90;99.90;;;;;;4973892;28;20208;-89
2023/03/16 04:18:53;;;;;;;9.10;5.67;;;4.90;99.90;;;;;;4958575;29;20205;-90
2023/03/16 04:21:21;;;;;;;8.07;5.90;;;4.90;99.90;;;;;;4955872;29;20204;-90
2023/03/16 04:23:53;;;;;;;8.90;5.77;;;4.90;99.90;;;;;;4967143;28;20219;-89
2023/03/16 04:26:20;;;;;;;7.53;5.60;;;5.00;99.90;;;;;;4977879;28;20561;-89
2023/03/16 04:28:49;;;;;;;8.33;5.70;;;4.90;99.90;;;;;;4976628;28;20203;-89
2023/03/16 04:31:17;;;;;;;8.00;5.40;;;5.00;99.90;;;;;;4992045;28;20201;-88
2023/03/16 04:33:44;;;;;;;11.60;5.90;;;4.90;99.90;;;;;;4991751;28;20318;-88
2023/03/16 04:36:15;;;;;;;7.13;5.23;;;4.90;99.90;;;;;;4977829;28;20223;-88
2023/03/16 04:38:42;;;;;;;9.10;5.53;;;4.90;99.90;;;;;;4978536;28;20217;-89
2023/03/16 04:41:10;;;;;;;9.20;5.73;;;4.80;99.90;;;;;;4980707;28;20273;-88
2023/03/16 04:43:37;;;;;;;10.43;6.17;;;4.90;99.90;;;;;;4985843;28;20247;-89
2023/03/16 04:46:05;;;;;;;7.77;6.00;;;4.80;99.90;;;;;;4978238;28;20231;-88
2023/03/16 04:48:34;;;;;;;8.10;5.73;;;4.80;99.90;;;;;;4983195;28;20228;-89
2023/03/16 04:51:04;;;;;;;9.37;6.37;;;4.80;99.90;;;;;;4997547;28;20196;-90
2023/03/16 04:53:33;;;;;;;10.27;5.90;;;4.80;99.90;;;;;;4975894;28;20311;-88
2023/03/16 04:56:01;;;;;;;9.57;6.10;;;4.80;99.90;;;;;;4974594;28;20270;-89
2023/03/16 04:58:28;;;;;;;8.43;6.83;;;4.80;99.90;;;;;;4982066;28;20204;-89
2023/03/16 05:00:57;;;;;;;9.37;5.73;;;4.80;99.90;;;;;;4982113;28;20223;-89
2023/03/16 05:03:26;;;;;;;13.37;6.13;;;4.80;99.90;;;;;;4975314;28;20255;-88
2023/03/16 05:05:56;;;;;;;12.07;6.37;;;4.80;99.90;;;;;;4983189;28;20216;-89
2023/03/16 05:08:26;;;;;;;7.37;5.87;;;4.80;99.90;;;;;;4982131;28;20271;-89
2023/03/16 05:10:57;;;;;;;8.70;5.90;;;4.80;99.90;;;;;;4973079;28;20208;-88
2023/03/16 05:13:27;;;;;;;9.90;6.33;;;4.80;99.90;;;;;;4981496;28;20242;-90
2023/03/16 05:15:54;;;;;;;8.37;5.83;;;4.70;99.90;;;;;;4987722;28;20199;-89
2023/03/16 05:18:26;;;;;;;12.03;6.83;;;4.70;99.90;;;;;;4990851;28;20219;-88
2023/03/16 05:20:55;;;;;;;8.33;6.07;;;4.70;99.90;;;;;;5002146;28;20507;-88
2023/03/16 05:23:25;;;;;;;8.13;6.30;;;4.70;99.90;;;;;;4985701;28;20221;-90
2023/03/16 05:25:52;;;;;;;9.13;6.40;;;4.60;99.90;;;;;;4986669;28;20215;-89
2023/03/16 05:28:21;;;;;;;8.37;5.33;;;4.60;99.90;;;;;;4974845;28;20196;-90
2023/03/16 05:30:50;;;;;;;8.63;5.87;;;4.70;99.90;;;;;;4988934;28;20246;-90
2023/03/16 05:33:17;;;;;;;10.60;6.07;;;4.60;99.90;;;;;;4990031;28;20239;-88
2023/03/16 05:35:45;;;;;;;7.93;5.80;;;4.60;99.90;;;;;;4993943;28;20217;-89
2023/03/16 05:38:12;;;;;;;8.30;5.93;;;4.50;99.90;;;;;;4996891;28;20202;-89
2023/03/16 05:40:41;;;;;;;14.70;6.80;;;4.60;99.90;;;;;;4996519;28;20247;-89
2023/03/16 05:43:08;;;;;;;7.37;5.67;;;4.60;99.90;;;;;;4997294;28;20254;-89
2023/03/16 05:45:40;;;;;;;9.07;6.30;;;4.60;99.90;;;;;;5003690;28;20191;-89
2023/03/16 05:48:07;;;;;;;9.83;5.97;;;4.60;99.90;;;;;;4995950;28;20338;-91
2023/03/16 05:50:34;;;;;;;9.00;6.23;;;4.70;99.90;;;;;;4995929;28;20264;-89
2023/03/16 05:53:03;;;;;;;9.50;5.83;;;4.60;99.90;;;;;;4994886;28;20234;-90
2023/03/16 05:55:34;;;;;;;12.43;6.40;;;4.70;99.90;;;;;;4999496;28;20206;-90
2023/03/16 05:58:01;;;;;;;8.77;5.93;;;4.70;99.90;;;;;;4990437;28;20223;-89
2023/03/16 06:00:34;;;;;;;9.93;6.30;;;4.70;99.90;;;;;;4971862;28;20264;-89
2023/03/16 06:03:02;;;;;;;9.47;6.60;;;4.80;99.90;;;;;;4990098;28;20211;-88
2023/03/16 06:05:32;;;;;;;13.20;6.97;;;4.80;99.90;;;;;;4989395;28;20216;-89
2023/03/16 06:08:02;;;;;;;9.93;6.20;;;4.80;99.90;;;;;;4989421;28;20211;-88
2023/03/16 06:10:30;;;;;;;8.10;6.20;;;4.90;99.90;;;;;;4989526;28;20202;-91
2023/03/16 06:13:09;;;;;;;8.07;6.13;;;4.90;99.90;;;;;;4990834;28;20230;-89
2023/03/16 06:16:05;;;;;;;10.23;5.87;;;4.90;99.90;;;;;;4992636;28;20653;-89
2023/03/16 06:18:46;;;;;;;8.00;6.20;;;4.90;99.90;;;;;;4982883;28;20290;-88
2023/03/16 06:21:14;;;;;;;9.67;5.40;;;5.00;99.90;;;;;;4985538;28;20211;-90
2023/03/16 06:23:44;;;;;;;9.03;6.30;;;5.00;99.90;;;;;;4984739;28;20203;-90
2023/03/16 06:26:13;;;;;;;7.43;5.63;;;5.10;99.90;;;;;;4988546;28;20226;-90
2023/03/16 06:28:41;;;;;;;7.67;5.70;;;5.10;99.90;;;;;;4993094;28;20200;-84
2023/03/16 06:31:18;;;;;;;7.27;5.60;;;5.10;99.90;;;;;;4998332;28;20203;-89
2023/03/16 06:33:45;;;;;;;8.53;5.80;;;5.20;99.90;;;;;;5006652;28;20672;-91
2023/03/16 06:36:15;;;;;;;9.20;5.57;;;5.20;99.90;;;;;;5003795;28;20204;-93
2023/03/16 06:39:21;;;;;;;8.93;5.77;;;5.70;99.90;;;;;;4984745;28;20199;-90
2023/03/16 06:41:50;;;;;;;8.13;5.67;;;5.70;99.90;;;;;;4982573;28;20216;-86
2023/03/16 06:44:17;;;;;;;8.07;5.33;;;5.90;99.90;;;;;;5003123;28;20214;-87
2023/03/16 06:46:46;;;;;;;6.80;5.23;;;6.10;99.90;;;;;;4971999;28;20204;-90
2023/03/16 06:49:16;;;;;;;8.90;5.43;;;4.90;99.90;;;;;;4981205;28;20291;-93
2023/03/16 06:51:50;;;;;;;8.90;5.93;;;6.50;99.90;;;;;;4968279;28;20731;-90
2023/03/16 06:54:19;;;;;;;7.50;5.30;;;5.30;99.90;;;;;;4966914;28;20707;-91
2023/03/16 06:56:52;;;;;;;7.27;6.00;;;5.90;99.90;;;;;;4965105;28;20212;-89
2023/03/16 06:59:20;;;;;;;9.03;5.70;;;5.40;99.90;;;;;;4969986;28;20230;-91
2023/03/16 07:01:49;;;;;;;8.40;5.97;;;6.00;99.90;;;;;;4980005;28;20739;-86
2023/03/16 07:04:20;;;;;;;7.30;5.00;;;6.30;99.90;;;;;;4980172;28;20274;-89
2023/03/16 07:06:47;;;;;;;6.93;5.10;;;5.30;99.90;;;;;;4982507;28;20238;-90
2023/03/16 07:09:14;;;;;;;8.50;5.20;;;6.00;99.90;;;;;;5000081;28;20204;-87
2023/03/16 07:11:41;;;;;;;9.13;5.97;;;5.40;99.90;;;;;;4983388;28;20232;-89
2023/03/16 07:14:09;;;;;;;9.13;5.27;;;5.40;99.90;;;;;;4995791;28;20233;-89
2023/03/16 07:16:36;;;;;;;6.90;5.03;;;5.50;99.90;;;;;;4985009;28;20249;-88
2023/03/16 07:19:03;;;;;;;10.33;5.27;;;5.60;99.90;;;;;;4979589;28;20223;-90
2023/03/16 07:21:37;;;;;;;7.13;4.87;;;5.70;99.90;;;;;;4981314;28;20274;-89
2023/03/16 07:24:06;;;;;;;9.03;5.40;;;5.60;99.90;;;;;;4990437;28;20216;-90
2023/03/16 07:26:33;;;;;;;9.30;6.13;;;5.70;99.90;;;;;;4982119;28;20307;-90
2023/03/16 07:29:00;;;;;;;9.27;5.10;;;5.70;99.90;;;;;;4980945;28;20210;-89
2023/03/16 07:31:27;;;;;;;7.17;4.97;;;5.70;99.90;;;;;;4993105;28;20215;-90
2023/03/16 07:33:54;;;;;;;8.83;5.10;;;5.80;99.90;;;;;;4975647;28;20235;-89
2023/03/16 07:36:21;;;;;;;10.00;5.67;;;5.80;99.90;;;;;;4982049;28;20233;-90
2023/03/16 07:38:48;;;;;;;8.30;5.90;;;5.80;99.90;;;;;;4989232;28;20213;-90
2023/03/16 07:41:15;;;;;;;11.13;6.40;;;5.90;99.90;;;;;;4978327;28;20644;-89
2023/03/16 07:43:43;;;;;;;10.30;6.20;;;6.00;99.90;;;;;;4980530;28;20196;-88
2023/03/16 07:46:12;;;;;;;10.50;5.93;;;6.00;99.90;;;;;;4977126;28;20199;-90
2023/03/16 07:48:42;;;;;;;9.33;5.70;;;6.10;99.90;;;;;;4985258;28;20219;-89
2023/03/16 07:51:10;;;;;;;7.97;6.00;;;6.20;99.90;;;;;;4982334;28;20884;-89
2023/03/16 07:53:45;;;;;;;7.13;5.17;;;6.20;99.90;;;;;;4988533;28;20230;-89
2023/03/16 07:56:15;;;;;;;11.80;6.20;;;6.30;99.90;;;;;;4980351;28;20206;-90
2023/03/16 07:58:47;;;;;;;9.40;5.70;;;6.20;99.90;;;;;;4980659;28;20574;-89
2023/03/16 08:01:16;;;;;;;8.93;6.03;;;6.20;99.90;;;;;;4977763;28;20257;-88
2023/03/16 08:03:46;;;;;;;12.20;6.43;;;6.30;99.90;;;;;;4978347;28;20267;-88
2023/03/16 08:06:18;;;;;;;11.10;6.63;;;6.30;99.90;;;;;;4984289;28;20307;-94
2023/03/16 08:08:46;;;;;;;11.97;6.50;;;6.30;99.90;;;;;;4983224;28;20222;-91
2023/03/16 08:11:13;;;;;;;10.30;6.23;;;6.20;99.90;;;;;;4975115;28;20247;-91
2023/03/16 08:13:42;;;;;;;9.83;5.97;;;6.20;99.90;;;;;;4976071;28;20288;-90
2023/03/16 08:16:12;;;;;;;12.83;6.77;;;6.20;99.90;;;;;;4987260;28;20263;-89
2023/03/16 08:18:40;;;;;;;9.57;6.80;;;6.10;99.90;;;;;;4984512;28;20307;-90
2023/03/16 08:21:07;;;;;;;10.73;6.00;;;6.10;99.90;;;;;;4979179;28;20220;-89
2023/03/16 08:23:36;;;;;;;11.20;6.77;;;6.20;99.90;;;;;;4979817;28;20225;-93
2023/03/16 08:26:07;;;;;;;7.00;5.53;;;6.10;99.90;;;;;;4979681;28;20575;-90
2023/03/16 08:28:35;;;;;;;9.03;5.90;;;6.20;99.90;;;;;;4981944;28;20349;-90
2023/03/16 08:31:06;;;;;;;9.43;5.57;;;6.10;99.90;;;;;;4986047;28;20223;-90
2023/03/16 08:33:34;;;;;;;8.97;6.33;;;6.20;99.90;;;;;;4982084;28;20244;-89
2023/03/16 08:36:05;;;;;;;11.03;6.40;;;6.20;99.90;;;;;;4982145;28;20224;-91
2023/03/16 08:38:33;;;;;;;9.27;6.23;;;6.20;99.90;;;;;;4994237;28;20241;-92
2023/03/16 08:41:03;;;;;;;9.20;6.53;;;6.20;99.90;;;;;;4981454;28;20247;-92
2023/03/16 08:43:31;;;;;;;11.47;6.63;;;6.20;99.90;;;;;;4982619;28;20217;-90
2023/03/16 08:46:00;;;;;;;9.23;6.40;;;6.20;99.90;;;;;;4984559;28;20208;-91
2023/03/16 08:48:28;;;;;;;11.37;6.33;;;6.20;99.90;;;;;;4980565;28;20235;-90
2023/03/16 08:50:55;;;;;;;12.43;6.37;;;6.20;99.90;;;;;;4993375;28;20209;-91
2023/03/16 08:53:22;;;;;;;9.27;6.50;;;6.20;99.90;;;;;;4981193;28;20231;-90
2023/03/16 08:55:50;;;;;;;12.13;7.77;;;6.30;99.90;;;;;;4982462;28;20204;-90
2023/03/16 08:58:17;;;;;;;8.30;6.30;;;6.40;99.90;;;;;;4981092;28;20211;-90
2023/03/16 09:00:45;;;;;;;9.53;5.57;;;6.40;99.90;;;;;;4972527;28;20718;-91
2023/03/16 09:03:15;;;;;;;11.67;6.33;;;6.60;99.90;;;;;;4992423;28;20224;-90
2023/03/16 09:05:42;;;;;;;9.63;5.80;;;6.70;99.90;;;;;;4987235;28;20197;-91
2023/03/16 09:08:09;;;;;;;13.27;7.23;;;6.80;99.90;;;;;;4980208;28;20241;-91
2023/03/16 09:10:36;;;;;;;9.23;5.90;;;7.00;99.90;;;;;;4981842;28;20293;-90
2023/03/16 09:13:04;;;;;;;9.33;5.63;;;7.10;99.90;;;;;;4982814;28;20229;-91
2023/03/16 09:15:31;;;;;;;8.70;5.57;;;7.00;99.90;;;;;;4980464;28;20230;-91
2023/03/16 09:17:59;;;;;;;8.20;5.43;;;7.00;99.90;;;;;;4991412;28;20231;-91
2023/03/16 09:20:27;;;;;;;9.20;5.53;;;7.00;99.90;;;;;;4991595;28;20226;-90
2023/03/16 09:22:56;;;;;;;10.30;5.33;;;7.00;99.90;;;;;;4980534;28;20217;-90
2023/03/16 09:25:24;;;;;;;7.50;5.20;;;7.00;99.90;;;;;;4979730;28;20226;-91
2023/03/16 09:27:52;;;;;;;9.80;5.60;;;7.10;99.90;;;;;;4995524;28;20212;-90
2023/03/16 09:30:19;;;;;;;9.77;5.87;;;7.10;99.90;;;;;;4989006;28;20308;-91
2023/03/16 09:32:47;;;;;;;9.13;5.90;;;7.20;99.90;;;;;;4987433;28;20557;-90
2023/03/16 09:35:15;;;;;;;10.03;6.30;;;7.30;99.90;;;;;;4976249;28;20238;-92
2023/03/16 09:37:42;;;;;;;10.37;6.23;;;7.40;99.90;;;;;;4974564;28;20215;-91
2023/03/16 09:40:25;;;;;;;7.70;5.27;;;7.40;99.90;;;;;;4982198;28;20582;-90
2023/03/16 09:43:19;;;;;;;9.40;6.00;;;7.50;99.90;;;;;;4973985;28;20213;-90
2023/03/16 09:46:07;;;;;;;9.20;5.40;;;7.60;99.90;;;;;;4969531;28;20241;-90
2023/03/16 09:48:37;;;;;;;7.30;5.37;;;7.50;99.90;;;;;;4965069;28;20211;-86
2023/03/16 09:51:17;;;;;;;10.17;5.87;;;7.50;99.90;;;;;;4973986;28;20209;-91
2023/03/16 09:53:46;;;;;;;7.67;5.50;;;7.60;99.90;;;;;;4982814;28;20735;-86
2023/03/16 09:56:28;;;;;;;10.30;5.80;;;7.60;99.90;;;;;;4970347;28;20202;-84
2023/03/16 09:58:57;;;;;;;10.17;5.43;;;7.70;99.90;;;;;;4961862;28;20749;-84
2023/03/16 10:01:52;;;;;;;7.87;5.50;;;7.70;99.90;;;;;;4960721;28;20684;-85
2023/03/16 10:04:40;;;;;;;7.83;5.40;;;7.80;99.90;;;;;;4969604;28;20761;-89
2023/03/16 10:07:49;;;;;;;5.83;4.57;;;7.90;99.90;;;;;;4976338;28;20571;-89
2023/03/16 10:10:17;;;;;;;6.83;4.90;;;8.00;99.90;;;;;;4972401;28;20222;-88
2023/03/16 10:12:51;;;;;;;6.67;5.13;;;8.20;99.90;;;;;;4974518;28;20729;-89
2023/03/16 10:15:26;;;;;;;9.23;5.03;;;8.10;99.90;;;;;;4988686;28;20282;-90
2023/03/16 10:18:00;;;;;;;7.70;5.07;;;8.20;99.90;;;;;;4982142;28;20294;-89
2023/03/16 10:20:32;;;;;;;5.87;4.87;;;8.20;99.90;;;;;;4979131;28;20211;-89
2023/03/16 10:23:15;;;;;;;7.30;4.53;;;8.20;99.90;;;;;;4972826;28;20311;-87
2023/03/16 10:25:48;;;;;;;9.10;4.67;;;8.20;99.90;;;;;;4967216;28;20319;-86
2023/03/16 10:28:18;;;;;;;6.07;4.87;;;8.30;99.90;;;;;;4967567;28;20235;-85
2023/03/16 10:30:53;;;;;;;7.33;4.13;;;8.30;99.90;;;;;;4981697;28;20964;-91
2023/03/16 10:33:26;;;;;;;7.30;5.20;;;8.40;99.90;;;;;;4987041;28;20295;-93
2023/03/16 10:35:57;;;;;;;9.70;5.70;;;8.40;99.90;;;;;;4973149;28;20232;-89
2023/03/16 10:38:38;;;;;;;8.87;5.87;;;8.50;99.90;;;;;;4981503;28;20215;-91
2023/03/16 10:41:21;;;;;;;7.50;5.17;;;8.50;99.90;;;;;;4978461;28;20665;-88
2023/03/16 10:43:54;;;;;;;9.50;6.30;;;8.70;99.90;;;;;;4978472;28;20206;-90
2023/03/16 10:46:24;;;;;;;7.07;5.10;;;8.60;99.90;;;;;;4982719;28;20223;-90
2023/03/16 10:48:59;;;;;;;7.40;5.20;;;8.70;99.90;;;;;;4968588;28;20221;-89
2023/03/16 10:51:29;;;;;;;8.60;5.77;;;8.70;99.90;;;;;;4991501;28;20451;-88
2023/03/16 10:54:27;;;;;;;8.50;5.70;;;8.80;99.90;;;;;;4969154;28;20206;-88
2023/03/16 10:56:55;;;;;;;8.67;5.47;;;8.80;99.90;;;;;;4987214;28;20237;-88
2023/03/16 10:59:34;;;;;;;9.67;5.73;;;9.00;99.90;;;;;;4977244;28;20297;-90
2023/03/16 11:02:33;;;;;;;7.73;5.00;;;9.20;99.90;;;;;;4995846;28;20198;-93
2023/03/16 11:05:17;;;;;;;8.90;5.30;;;9.40;99.90;;;;;;4973562;28;20268;-92
2023/03/16 11:07:50;;;;;;;8.53;5.00;;;9.70;99.90;;;;;;4984370;28;20211;-91
2023/03/16 11:10:35;;;;;;;10.17;5.07;;;9.90;99.90;;;;;;5003222;28;20293;-92
2023/03/16 11:13:19;;;;;;;7.23;4.40;;;10.10;99.90;;;;;;4964683;28;20575;-87
2023/03/16 11:15:57;;;;;;;5.93;4.27;;;10.20;99.90;;;;;;4975521;28;20560;-88
2023/03/16 11:18:38;;;;;;;6.47;4.53;;;10.30;99.90;;;;;;4974311;28;20212;-91
2023/03/16 11:21:37;;;;;;;6.10;4.37;;;10.40;99.90;;;;;;4962310;28;20259;-92
2023/03/16 11:24:14;;;;;;;7.87;4.30;;;10.60;99.90;;;;;;4980760;28;20211;-91
2023/03/16 11:26:43;;;;;;;9.77;4.77;;;10.70;99.90;;;;;;4980372;28;20222;-91
2023/03/16 11:29:19;;;;;;;9.27;4.60;;;10.80;99.90;;;;;;4987223;28;20278;-92
2023/03/16 11:31:54;;;;;;;8.57;4.80;;;11.00;99.90;;;;;;4983566;28;20208;-87
2023/03/16 11:34:29;;;;;;;6.73;4.50;;;11.10;99.90;;;;;;4975145;28;20291;-90
2023/03/16 11:37:31;;;;;;;6.90;4.13;;;11.30;99.90;;;;;;4975131;28;20211;-89
2023/03/16 11:40:39;;;;;;;7.17;4.13;;;11.40;99.90;;;;;;4966146;28;20299;-92
2023/03/16 11:43:48;;;;;;;6.97;4.63;;;11.60;99.90;;;;;;4992145;28;20207;-90
2023/03/16 11:46:44;;;;;;;6.50;3.80;;;11.60;99.90;;;;;;4968123;28;20290;-85
2023/03/16 11:49:49;;;;;;;6.70;3.80;;;11.60;99.90;;;;;;4969058;28;20228;-91
2023/03/16 11:52:44;;;;;;;5.20;3.93;;;11.50;99.90;;;;;;4979133;28;20562;-90
2023/03/16 11:55:31;;;;;;;6.20;3.60;;;11.50;99.90;;;;;;4986863;28;20270;-90
2023/03/16 11:58:18;;;;;;;6.07;3.63;;;11.60;99.90;;;;;;4974684;28;20215;-92
2023/03/16 12:01:10;;;;;;;6.77;3.70;;;11.40;99.90;;;;;;4976868;28;20211;-89
2023/03/16 12:04:02;;;;;;;6.47;3.93;;;11.40;99.90;;;;;;4979192;28;20213;-89
2023/03/16 12:07:16;;;;;;;8.63;3.90;;;11.40;99.90;;;;;;4992939;28;20204;-91
2023/03/16 12:10:05;;;;;;;5.07;3.50;;;11.40;99.90;;;;;;4979919;28;20215;-90
2023/03/16 12:12:50;;;;;;;7.03;3.90;;;11.30;99.90;;;;;;4981911;28;20287;-91
2023/03/16 12:15:31;;;;;;;7.27;4.10;;;11.30;99.90;;;;;;4972740;28;20260;-92
2023/03/16 12:18:24;;;;;;;7.57;4.20;;;11.30;99.90;;;;;;4981780;28;20212;-92
2023/03/16 12:21:11;;;;;;;7.63;4.20;;;11.50;99.90;;;;;;4966450;28;20212;-93
2023/03/16 12:24:05;;;;;;;5.97;3.87;;;11.40;99.90;;;;;;4973143;28;20211;-91
2023/03/16 12:26:41;;;;;;;6.10;4.30;;;11.50;99.90;;;;;;4978077;28;20208;-92
2023/03/16 12:29:42;;;;;;;;;;;;;;;;;;;;;
2023/03/16 12:32:36;;;;;;;7.93;4.20;;;11.50;99.90;;;;;;4968154;28;20216;-85
2023/03/16 12:35:23;;;;;;;4.13;3.47;;;11.60;99.90;;;;;;4967745;28;20732;-86
2023/03/16 12:38:17;;;;;;;6.57;3.97;;;11.60;99.90;;;;;;4966087;28;20214;-90
2023/03/16 12:41:02;;;;;;;8.83;3.97;;;11.70;99.90;;;;;;4990567;28;20270;-92
2023/03/16 12:44:00;;;;;;;6.37;4.17;;;11.90;99.90;;;;;;4979739;28;20661;-90
2023/03/16 12:46:41;;;;;;;8.33;4.53;;;12.00;99.90;;;;;;4969291;28;20231;-86
2023/03/16 12:49:08;;;;;;;6.07;4.30;;;12.20;99.90;;;;;;4976987;28;20281;-85
2023/03/16 12:51:38;;;;;;;7.40;4.47;;;12.20;99.90;;;;;;4968046;28;20584;-86
2023/03/16 12:54:17;;;;;;;4.60;3.87;;;12.40;99.90;;;;;;4968470;28;20714;-87
2023/03/16 12:56:46;;;;;;;6.23;4.53;;;12.50;99.90;;;;;;4965973;28;20270;-86
2023/03/16 12:59:19;;;;;;;7.30;3.97;;;12.60;99.90;;;;;;4955005;28;20241;-86
2023/03/16 13:01:57;;;;;;;6.57;4.33;;;12.70;99.90;;;;;;4970206;28;20230;-86
2023/03/16 13:04:39;;;;;;;7.43;4.40;;;12.90;99.90;;;;;;4971229;28;20234;-85
2023/03/16 13:07:15;;;;;;;7.23;4.17;;;13.00;99.90;;;;;;4968841;28;20667;-86
2023/03/16 13:10:03;;;;;;;6.20;4.17;;;13.30;99.90;;;;;;4969836;28;20247;-86
2023/03/16 13:12:35;;;;;;;6.07;4.20;;;13.30;99.90;;;;;;4985494;28;20274;-89
2023/03/16 13:15:23;;;;;;;6.93;3.50;;;13.40;99.90;;;;;;4982065;28;20219;-92
2023/03/16 13:18:05;;;;;;;5.17;3.63;;;13.50;99.90;;;;;;4988383;28;20273;-94
2023/03/16 13:20:36;;;;;;;4.43;3.70;;;13.60;99.90;;;;;;4981928;28;20262;-92
2023/03/16 13:23:17;;;;;;;7.77;4.10;;;13.60;99.90;;;;;;4996150;28;20325;-90
2023/03/16 13:26:04;;;;;;;5.90;3.87;;;13.60;99.90;;;;;;4977554;28;20257;-93
2023/03/16 13:28:36;;;;;;;10.17;3.90;;;13.70;99.90;;;;;;4980857;28;20347;-91